Time;durP1;ratioP1;P1;durP2;ratioP2;P2;SDS_P1;SDS_P2;PMS_P1;PMS_P2;Temp;Humidity;BMP_temperature;BMP_pressure;BME280_temperature;BME280_humidity;BME280_pressure;Samples;Min_cycle;Max_cycle;Signal;HPM_P1;HPM_P2
2023/05/19 00:01:18;;;;;;;24.73;21.77;;;;;;;;;;4976569;28;20118;-74
2023/05/19 00:03:51;;;;;;;27.63;23.67;;;;;;;;;;4977151;28;20030;-74
2023/05/19 00:06:20;;;;;;;26.48;23.67;;;;;;;;;;4967646;28;20026;-76
2023/05/19 00:08:45;;;;;;;27.50;22.90;;;;;;;;;;4967585;28;20034;-78
2023/05/19 00:11:10;;;;;;;24.80;22.10;;;;;;;;;;4967046;28;20030;-73
2023/05/19 00:13:39;;;;;;;22.52;19.48;;;;;;;;;;4960778;28;20019;-75
2023/05/19 00:16:05;;;;;;;24.20;21.58;;;;;;;;;;4972536;28;20669;-74
2023/05/19 00:18:30;;;;;;;21.98;19.63;;;;;;;;;;4965107;28;21194;-75
2023/05/19 00:20:55;;;;;;;22.23;20.00;;;;;;;;;;4970771;28;20034;-74
2023/05/19 00:23:21;;;;;;;19.90;17.02;;;;;;;;;;4969890;28;20045;-74
2023/05/19 00:25:46;;;;;;;20.05;17.17;;;;;;;;;;4976054;28;20058;-72
2023/05/19 00:28:11;;;;;;;30.38;24.45;;;;;;;;;;4963608;28;20073;-75
2023/05/19 00:30:37;;;;;;;29.77;25.58;;;;;;;;;;4973518;28;20430;-73
2023/05/19 00:33:02;;;;;;;28.90;23.30;;;;;;;;;;4975910;28;20059;-74
2023/05/19 00:35:27;;;;;;;25.33;22.65;;;;;;;;;;4977149;28;20073;-75
2023/05/19 00:37:53;;;;;;;24.27;21.63;;;;;;;;;;4975965;28;20054;-73
2023/05/19 00:40:18;;;;;;;25.70;22.90;;;;;;;;;;4971373;28;20067;-74
2023/05/19 00:42:44;;;;;;;26.67;23.88;;;;;;;;;;4963602;28;20047;-74
2023/05/19 00:45:09;;;;;;;32.47;24.80;;;;;;;;;;4976795;28;20042;-74
2023/05/19 00:47:35;;;;;;;62.20;23.73;;;;;;;;;;4975792;28;20030;-73
2023/05/19 00:50:00;;;;;;;25.77;22.80;;;;;;;;;;4963187;28;20525;-74
2023/05/19 00:52:26;;;;;;;25.77;22.88;;;;;;;;;;4976483;28;20038;-77
2023/05/19 00:54:52;;;;;;;24.15;21.65;;;;;;;;;;4974922;28;20015;-74
2023/05/19 00:57:17;;;;;;;25.02;22.10;;;;;;;;;;4974222;28;20062;-72
2023/05/19 00:59:43;;;;;;;24.70;22.08;;;;;;;;;;4974947;28;20053;-73
2023/05/19 01:02:08;;;;;;;23.27;20.73;;;;;;;;;;4974594;28;20030;-75
2023/05/19 01:04:35;;;;;;;24.90;22.20;;;;;;;;;;4969698;28;20038;-74
2023/05/19 01:07:00;;;;;;;25.23;22.60;;;;;;;;;;4970210;28;20031;-77
2023/05/19 01:09:25;;;;;;;26.25;21.80;;;;;;;;;;4970185;28;20052;-76
2023/05/19 01:11:51;;;;;;;26.27;23.05;;;;;;;;;;4964125;28;20040;-74
2023/05/19 01:14:17;;;;;;;25.05;22.20;;;;;;;;;;4965563;28;20426;-75
2023/05/19 01:16:47;;;;;;;23.88;21.33;;;;;;;;;;4966473;28;20378;-74
2023/05/19 01:19:29;;;;;;;21.83;19.63;;;;;;;;;;4966287;28;20083;-75
2023/05/19 01:22:01;;;;;;;21.83;19.15;;;;;;;;;;4963622;28;20786;-72
2023/05/19 01:24:44;;;;;;;21.65;19.45;;;;;;;;;;4975273;28;20053;-73
2023/05/19 01:27:27;;;;;;;23.20;20.75;;;;;;;;;;4973094;28;20038;-73
2023/05/19 01:30:11;;;;;;;21.17;19.02;;;;;;;;;;4975417;28;20023;-75
2023/05/19 01:32:39;;;;;;;21.65;18.58;;;;;;;;;;4974615;28;20040;-74
2023/05/19 01:35:06;;;;;;;21.55;19.23;;;;;;;;;;4967461;28;20064;-74
2023/05/19 01:37:32;;;;;;;20.65;18.20;;;;;;;;;;4969530;28;20035;-74
2023/05/19 01:39:58;;;;;;;22.02;19.70;;;;;;;;;;4975240;28;20034;-73
2023/05/19 01:42:23;;;;;;;19.05;17.00;;;;;;;;;;4974438;28;20081;-74
2023/05/19 01:44:50;;;;;;;20.45;18.05;;;;;;;;;;4971051;28;20035;-74
2023/05/19 01:47:15;;;;;;;18.60;16.45;;;;;;;;;;4968341;28;20030;-76
2023/05/19 01:49:40;;;;;;;19.23;17.20;;;;;;;;;;4965172;28;20041;-75
2023/05/19 01:52:06;;;;;;;19.67;17.45;;;;;;;;;;4960697;28;20494;-74
2023/05/19 01:54:31;;;;;;;19.38;17.38;;;;;;;;;;4963362;28;20026;-76
2023/05/19 01:57:02;;;;;;;18.30;15.77;;;;;;;;;;4974398;28;20069;-74
2023/05/19 01:59:31;;;;;;;18.95;16.98;;;;;;;;;;4963880;28;20376;-75
2023/05/19 02:01:58;;;;;;;20.00;16.77;;;;;;;;;;4966097;28;20134;-76
2023/05/19 02:04:30;;;;;;;18.38;16.48;;;;;;;;;;4972555;28;20030;-74
2023/05/19 02:06:55;;;;;;;20.88;17.67;;;;;;;;;;4973598;28;20048;-75
2023/05/19 02:09:20;;;;;;;24.02;18.30;;;;;;;;;;4974033;28;20113;-76
2023/05/19 02:11:58;;;;;;;22.70;17.77;;;;;;;;;;4974389;28;20054;-74
2023/05/19 02:14:23;;;;;;;19.08;17.05;;;;;;;;;;4972318;28;20048;-77
2023/05/19 02:16:49;;;;;;;19.92;17.83;;;;;;;;;;4963349;28;20513;-75
2023/05/19 02:19:29;;;;;;;19.73;16.63;;;;;;;;;;4972098;28;20484;-77
2023/05/19 02:21:55;;;;;;;19.00;16.95;;;;;;;;;;4975554;28;20337;-76
2023/05/19 02:24:21;;;;;;;17.27;15.57;;;;;;;;;;4971995;28;20443;-77
2023/05/19 02:26:47;;;;;;;18.95;16.52;;;;;;;;;;4973813;28;20039;-75
2023/05/19 02:29:12;;;;;;;21.55;18.33;;;;;;;;;;4974011;28;20043;-76
2023/05/19 02:31:38;;;;;;;22.98;19.25;;;;;;;;;;4980992;28;20038;-79
2023/05/19 02:34:03;;;;;;;21.75;19.38;;;;;;;;;;4973446;28;20026;-75
2023/05/19 02:36:29;;;;;;;21.23;18.52;;;;;;;;;;4973069;28;20037;-73
2023/05/19 02:38:55;;;;;;;22.60;19.60;;;;;;;;;;4965491;28;20026;-77
2023/05/19 02:41:21;;;;;;;24.38;19.10;;;;;;;;;;4973778;28;20065;-75
2023/05/19 02:43:46;;;;;;;19.92;17.77;;;;;;;;;;4960357;28;20034;-75
2023/05/19 02:46:11;;;;;;;19.25;17.25;;;;;;;;;;4972712;28;20045;-77
2023/05/19 02:48:38;;;;;;;23.75;18.65;;;;;;;;;;4968631;28;20455;-74
2023/05/19 02:51:03;;;;;;;21.75;17.35;;;;;;;;;;4971675;28;20039;-74
2023/05/19 02:53:29;;;;;;;18.65;16.75;;;;;;;;;;4967320;28;20429;-75
2023/05/19 02:55:55;;;;;;;19.13;16.85;;;;;;;;;;4959569;28;20038;-75
2023/05/19 02:58:20;;;;;;;17.55;15.75;;;;;;;;;;4976527;28;20037;-75
2023/05/19 03:00:45;;;;;;;19.05;15.68;;;;;;;;;;4972778;28;20026;-77
2023/05/19 03:03:12;;;;;;;18.10;15.30;;;;;;;;;;4962731;28;20102;-75
2023/05/19 03:05:37;;;;;;;19.15;15.73;;;;;;;;;;4971793;28;20487;-74
2023/05/19 03:08:03;;;;;;;17.25;15.55;;;;;;;;;;4976309;28;20092;-74
2023/05/19 03:10:29;;;;;;;18.88;15.88;;;;;;;;;;4961182;28;20029;-74
2023/05/19 03:12:54;;;;;;;17.60;15.90;;;;;;;;;;4973570;28;20064;-77
2023/05/19 03:15:22;;;;;;;16.88;15.05;;;;;;;;;;4973860;28;20129;-75
2023/05/19 03:17:47;;;;;;;23.13;15.57;;;;;;;;;;4974177;28;20027;-74
2023/05/19 03:20:14;;;;;;;17.65;15.50;;;;;;;;;;4973563;28;20054;-73
2023/05/19 03:22:40;;;;;;;16.67;15.02;;;;;;;;;;4965028;28;20111;-75
2023/05/19 03:25:05;;;;;;;17.25;14.02;;;;;;;;;;4969640;28;20083;-77
2023/05/19 03:27:31;;;;;;;16.75;15.10;;;;;;;;;;4961194;28;20041;-73
2023/05/19 03:29:56;;;;;;;17.05;14.93;;;;;;;;;;4974569;28;20468;-74
2023/05/19 03:32:21;;;;;;;19.65;15.60;;;;;;;;;;4966038;28;20166;-74
2023/05/19 03:34:47;;;;;;;19.98;14.80;;;;;;;;;;4969524;28;20030;-75
2023/05/19 03:37:12;;;;;;;19.67;15.23;;;;;;;;;;4974081;28;20018;-74
2023/05/19 03:39:37;;;;;;;17.00;14.98;;;;;;;;;;4975531;28;20030;-73
2023/05/19 03:42:03;;;;;;;19.08;17.15;;;;;;;;;;4963548;28;20138;-74
2023/05/19 03:44:29;;;;;;;21.70;17.85;;;;;;;;;;4969750;28;20473;-75
2023/05/19 03:46:54;;;;;;;19.55;16.98;;;;;;;;;;4966642;28;20425;-77
2023/05/19 03:49:20;;;;;;;19.88;17.77;;;;;;;;;;4967617;28;20039;-74
2023/05/19 03:51:45;;;;;;;19.67;17.02;;;;;;;;;;4963634;28;20022;-74
2023/05/19 03:54:11;;;;;;;23.33;18.10;;;;;;;;;;4968935;28;20930;-74
2023/05/19 03:56:37;;;;;;;17.38;15.68;;;;;;;;;;4975526;28;20490;-73
2023/05/19 03:59:05;;;;;;;18.27;15.73;;;;;;;;;;4973663;28;20045;-74
2023/05/19 04:01:30;;;;;;;18.48;16.58;;;;;;;;;;4966039;28;20441;-74
2023/05/19 04:03:55;;;;;;;18.83;16.73;;;;;;;;;;4968510;28;20042;-74
2023/05/19 04:06:21;;;;;;;18.83;16.83;;;;;;;;;;4974812;28;20773;-74
2023/05/19 04:08:46;;;;;;;22.02;19.70;;;;;;;;;;4974687;28;20460;-73
2023/05/19 04:11:11;;;;;;;27.83;24.80;;;;;;;;;;4972670;28;20026;-74
2023/05/19 04:13:37;;;;;;;38.05;34.13;;;;;;;;;;4973420;28;20062;-73
2023/05/19 04:16:02;;;;;;;37.67;33.75;;;;;;;;;;4971086;28;20042;-74
2023/05/19 04:18:27;;;;;;;32.83;29.38;;;;;;;;;;4973082;28;21650;-75
2023/05/19 04:20:53;;;;;;;26.67;23.73;;;;;;;;;;4973859;28;20029;-74
2023/05/19 04:23:18;;;;;;;25.50;22.80;;;;;;;;;;4973346;28;20058;-76
2023/05/19 04:25:43;;;;;;;32.70;28.30;;;;;;;;;;4972372;28;20505;-75
2023/05/19 04:28:09;;;;;;;37.25;33.20;;;;;;;;;;4972684;28;20026;-74
2023/05/19 04:30:35;;;;;;;38.10;33.60;;;;;;;;;;4973174;28;20035;-73
2023/05/19 04:33:02;;;;;;;36.75;32.00;;;;;;;;;;4978699;28;20026;-74
2023/05/19 04:35:27;;;;;;;39.35;35.03;;;;;;;;;;4974559;28;20118;-77
2023/05/19 04:37:53;;;;;;;40.35;32.72;;;;;;;;;;4975662;28;20161;-73
2023/05/19 04:40:19;;;;;;;48.72;42.05;;;;;;;;;;4976164;28;20121;-75
2023/05/19 04:42:45;;;;;;;261.05;199.50;;;;;;;;;;4971025;28;20353;-75
2023/05/19 04:45:13;;;;;;;486.48;308.73;;;;;;;;;;4966304;28;20578;-74
2023/05/19 04:47:40;;;;;;;207.35;140.65;;;;;;;;;;4977947;28;20066;-76
2023/05/19 04:50:06;;;;;;;129.23;105.10;;;;;;;;;;4976582;28;20026;-77
2023/05/19 04:52:32;;;;;;;53.63;46.60;;;;;;;;;;4974427;28;20033;-75
2023/05/19 04:54:57;;;;;;;44.40;39.58;;;;;;;;;;4976344;28;20106;-77
2023/05/19 04:57:22;;;;;;;38.40;34.35;;;;;;;;;;4974440;28;20035;-75
2023/05/19 04:59:48;;;;;;;35.65;31.77;;;;;;;;;;4973973;28;20029;-76
2023/05/19 05:02:14;;;;;;;32.75;29.23;;;;;;;;;;4947599;28;20457;-76
2023/05/19 05:04:42;;;;;;;39.88;35.65;;;;;;;;;;4949405;28;20034;-76
2023/05/19 05:07:07;;;;;;;39.60;35.50;;;;;;;;;;4957822;28;20034;-76
2023/05/19 05:09:33;;;;;;;74.57;66.97;;;;;;;;;;4961829;28;20103;-75
2023/05/19 05:11:58;;;;;;;62.60;56.33;;;;;;;;;;4953719;28;20055;-77
2023/05/19 05:14:24;;;;;;;46.25;41.45;;;;;;;;;;4949692;28;20441;-77
2023/05/19 05:16:50;;;;;;;44.78;39.83;;;;;;;;;;4961993;28;20034;-76
2023/05/19 05:19:16;;;;;;;47.20;42.38;;;;;;;;;;4974236;28;20441;-74
2023/05/19 05:21:42;;;;;;;34.40;30.73;;;;;;;;;;4974447;28;20027;-74
2023/05/19 05:24:08;;;;;;;38.17;32.55;;;;;;;;;;4974738;28;20027;-78
2023/05/19 05:26:34;;;;;;;55.13;46.97;;;;;;;;;;4975322;28;20433;-75
2023/05/19 05:28:59;;;;;;;46.67;39.28;;;;;;;;;;4974583;28;20080;-77
2023/05/19 05:31:25;;;;;;;44.75;39.17;;;;;;;;;;4973252;28;20018;-78
2023/05/19 05:33:50;;;;;;;44.83;36.95;;;;;;;;;;4976139;28;20452;-77
2023/05/19 05:36:16;;;;;;;39.70;34.53;;;;;;;;;;4975815;28;20047;-76
2023/05/19 05:38:41;;;;;;;37.40;32.50;;;;;;;;;;4973843;28;20027;-77
2023/05/19 05:41:06;;;;;;;40.15;35.65;;;;;;;;;;4973866;28;20754;-75
2023/05/19 05:43:32;;;;;;;39.90;35.53;;;;;;;;;;4975029;28;20050;-76
2023/05/19 05:45:57;;;;;;;32.00;27.73;;;;;;;;;;4963524;28;20033;-78
2023/05/19 05:48:23;;;;;;;32.75;29.25;;;;;;;;;;4976979;28;20103;-76
2023/05/19 05:50:49;;;;;;;55.88;46.42;;;;;;;;;;4973380;28;20107;-77
2023/05/19 05:53:18;;;;;;;136.48;118.38;;;;;;;;;;4974996;28;20022;-75
2023/05/19 05:55:44;;;;;;;64.03;57.00;;;;;;;;;;4966557;28;20074;-76
2023/05/19 05:58:10;;;;;;;39.67;35.28;;;;;;;;;;4971512;28;20072;-75
2023/05/19 06:00:35;;;;;;;37.53;33.42;;;;;;;;;;4975332;28;20054;-75
2023/05/19 06:03:02;;;;;;;35.40;31.77;;;;;;;;;;4974296;28;20022;-75
2023/05/19 06:05:28;;;;;;;32.55;29.08;;;;;;;;;;4976232;28;20046;-74
2023/05/19 06:07:53;;;;;;;26.50;23.83;;;;;;;;;;4975252;28;20342;-76
2023/05/19 06:10:18;;;;;;;25.02;22.50;;;;;;;;;;4973170;28;20081;-75
2023/05/19 06:12:44;;;;;;;30.52;27.33;;;;;;;;;;4973682;28;20083;-76
2023/05/19 06:15:09;;;;;;;29.55;26.33;;;;;;;;;;4974213;28;21122;-76
2023/05/19 06:17:35;;;;;;;26.75;23.95;;;;;;;;;;4959195;28;20022;-76
2023/05/19 06:20:01;;;;;;;27.90;24.95;;;;;;;;;;4970066;28;20319;-77
2023/05/19 06:22:27;;;;;;;28.17;25.23;;;;;;;;;;4947535;28;20033;-75
2023/05/19 06:24:52;;;;;;;27.33;24.42;;;;;;;;;;4973558;28;20365;-76
2023/05/19 06:27:18;;;;;;;32.65;28.85;;;;;;;;;;4970895;28;20038;-75
2023/05/19 06:29:43;;;;;;;25.83;23.13;;;;;;;;;;4974703;28;20079;-78
2023/05/19 06:32:08;;;;;;;28.40;22.52;;;;;;;;;;4971918;28;20057;-77
2023/05/19 06:34:34;;;;;;;23.63;21.23;;;;;;;;;;4973993;28;20448;-79
2023/05/19 06:37:01;;;;;;;21.80;19.48;;;;;;;;;;4969616;28;20349;-77
2023/05/19 06:39:26;;;;;;;21.58;19.38;;;;;;;;;;4974123;28;20512;-76
2023/05/19 06:41:52;;;;;;;21.58;19.38;;;;;;;;;;4969995;28;20134;-78
2023/05/19 06:44:17;;;;;;;21.23;18.58;;;;;;;;;;4972279;28;20044;-78
2023/05/19 06:46:43;;;;;;;22.05;19.75;;;;;;;;;;4973273;28;20026;-78
2023/05/19 06:49:09;;;;;;;22.98;20.63;;;;;;;;;;4974194;28;20030;-78
2023/05/19 06:51:34;;;;;;;22.17;19.88;;;;;;;;;;4974044;28;20023;-78
2023/05/19 06:54:00;;;;;;;22.83;20.52;;;;;;;;;;4972206;28;20088;-77
2023/05/19 06:56:25;;;;;;;21.85;18.25;;;;;;;;;;4972394;28;20033;-77
2023/05/19 06:58:50;;;;;;;22.88;18.92;;;;;;;;;;4973253;28;20029;-76
2023/05/19 07:01:16;;;;;;;16.08;14.38;;;;;;;;;;4975334;28;20019;-77
2023/05/19 07:03:41;;;;;;;17.58;15.70;;;;;;;;;;4974928;28;20030;-77
2023/05/19 07:06:06;;;;;;;17.77;15.35;;;;;;;;;;4973133;28;20045;-75
2023/05/19 07:08:33;;;;;;;15.80;14.18;;;;;;;;;;4973523;28;20331;-75
2023/05/19 07:10:58;;;;;;;14.95;13.43;;;;;;;;;;4974409;28;20372;-77
2023/05/19 07:13:24;;;;;;;17.42;15.57;;;;;;;;;;4962006;28;20022;-76
2023/05/19 07:15:51;;;;;;;14.65;13.10;;;;;;;;;;4974448;28;20109;-76
2023/05/19 07:18:16;;;;;;;16.52;12.82;;;;;;;;;;4973998;28;20031;-75
2023/05/19 07:20:42;;;;;;;13.73;12.43;;;;;;;;;;4973202;28;20026;-76
2023/05/19 07:23:07;;;;;;;15.00;13.65;;;;;;;;;;4972183;28;20034;-76
2023/05/19 07:25:32;;;;;;;12.32;11.15;;;;;;;;;;4974934;28;20665;-76
2023/05/19 07:27:58;;;;;;;13.05;11.82;;;;;;;;;;4972958;28;20030;-75
2023/05/19 07:30:23;;;;;;;10.13;9.20;;;;;;;;;;4973874;28;20033;-75
2023/05/19 07:32:48;;;;;;;12.85;11.63;;;;;;;;;;4972062;28;20105;-75
2023/05/19 07:35:14;;;;;;;12.40;10.90;;;;;;;;;;4973655;28;20109;-75
2023/05/19 07:37:39;;;;;;;11.77;10.68;;;;;;;;;;4962993;28;20019;-75
2023/05/19 07:40:09;;;;;;;12.93;10.63;;;;;;;;;;4970098;28;20445;-76
2023/05/19 07:42:34;;;;;;;11.98;10.63;;;;;;;;;;4974036;28;20066;-76
2023/05/19 07:45:00;;;;;;;12.68;11.15;;;;;;;;;;4971324;28;20034;-75
2023/05/19 07:47:25;;;;;;;15.25;11.80;;;;;;;;;;4974761;28;20042;-76
2023/05/19 07:49:50;;;;;;;13.88;12.57;;;;;;;;;;4971146;28;20031;-77
2023/05/19 07:52:17;;;;;;;12.40;10.98;;;;;;;;;;4971188;28;20412;-76
2023/05/19 07:54:42;;;;;;;12.48;10.75;;;;;;;;;;4973078;28;20022;-76
2023/05/19 07:57:08;;;;;;;14.32;12.10;;;;;;;;;;4973202;28;20035;-76
2023/05/19 07:59:33;;;;;;;12.43;10.50;;;;;;;;;;4972518;28;20023;-76
2023/05/19 08:01:58;;;;;;;11.20;10.20;;;;;;;;;;4974088;28;20040;-76
2023/05/19 08:04:24;;;;;;;11.70;10.57;;;;;;;;;;4975155;28;20041;-76
2023/05/19 08:06:51;;;;;;;12.23;10.95;;;;;;;;;;4973034;28;20031;-77
2023/05/19 08:09:16;;;;;;;11.45;10.35;;;;;;;;;;4977198;28;20041;-77
2023/05/19 08:11:41;;;;;;;11.30;10.30;;;;;;;;;;4976359;28;20026;-77
2023/05/19 08:14:07;;;;;;;12.25;10.98;;;;;;;;;;4974412;28;20039;-76
2023/05/19 08:16:32;;;;;;;11.40;10.35;;;;;;;;;;4976522;28;20022;-74
2023/05/19 08:19:01;;;;;;;13.05;11.73;;;;;;;;;;4976990;28;20337;-75
2023/05/19 08:21:26;;;;;;;11.43;10.02;;;;;;;;;;4976551;28;20454;-77
2023/05/19 08:23:52;;;;;;;11.60;10.52;;;;;;;;;;4976657;28;20108;-75
2023/05/19 08:26:17;;;;;;;12.40;10.40;;;;;;;;;;4977735;28;20080;-74
2023/05/19 08:28:43;;;;;;;11.07;9.98;;;;;;;;;;4976256;28;20089;-75
2023/05/19 08:31:08;;;;;;;12.70;11.48;;;;;;;;;;4975894;28;20118;-75
2023/05/19 08:33:33;;;;;;;12.85;10.75;;;;;;;;;;4976663;28;20034;-75
2023/05/19 08:35:59;;;;;;;11.20;10.20;;;;;;;;;;4975564;28;20022;-74
2023/05/19 08:38:25;;;;;;;11.98;10.52;;;;;;;;;;4975709;28;20037;-78
2023/05/19 08:40:50;;;;;;;12.35;9.77;;;;;;;;;;4974807;28;20457;-76
2023/05/19 08:43:16;;;;;;;10.90;9.82;;;;;;;;;;4977068;28;20054;-75
2023/05/19 08:45:42;;;;;;;11.02;9.77;;;;;;;;;;4974732;28;20433;-76
2023/05/19 08:48:07;;;;;;;11.30;9.40;;;;;;;;;;4975474;28;20034;-76
2023/05/19 08:50:35;;;;;;;9.93;8.95;;;;;;;;;;4976096;28;20072;-76
2023/05/19 08:53:06;;;;;;;9.15;8.35;;;;;;;;;;4975185;28;20030;-75
2023/05/19 08:55:45;;;;;;;11.35;8.43;;;;;;;;;;4976786;28;20366;-75
2023/05/19 08:58:11;;;;;;;9.20;8.23;;;;;;;;;;4975472;28;20071;-76
2023/05/19 09:00:37;;;;;;;9.32;8.45;;;;;;;;;;4973551;28;20350;-75
2023/05/19 09:03:03;;;;;;;9.20;8.32;;;;;;;;;;4977388;28;20030;-79
2023/05/19 09:05:29;;;;;;;9.40;7.80;;;;;;;;;;4975956;28;20035;-77
2023/05/19 09:07:54;;;;;;;11.38;8.13;;;;;;;;;;4974379;28;20409;-75
2023/05/19 09:10:19;;;;;;;9.73;8.55;;;;;;;;;;4977256;28;20053;-75
2023/05/19 09:12:50;;;;;;;8.73;7.55;;;;;;;;;;4975355;28;20031;-79
2023/05/19 09:15:16;;;;;;;9.27;8.00;;;;;;;;;;4975615;28;21026;-75
2023/05/19 09:17:43;;;;;;;9.65;8.65;;;;;;;;;;4972401;28;20023;-76
2023/05/19 09:20:11;;;;;;;10.15;7.97;;;;;;;;;;4976131;28;20376;-75
2023/05/19 09:22:40;;;;;;;8.45;7.75;;;;;;;;;;4975648;28;20036;-75
2023/05/19 09:25:16;;;;;;;13.20;7.95;;;;;;;;;;4972878;28;20061;-76
2023/05/19 09:27:41;;;;;;;8.93;8.02;;;;;;;;;;4973077;28;20442;-77
2023/05/19 09:30:08;;;;;;;9.52;8.52;;;;;;;;;;4974248;28;20043;-76
2023/05/19 09:32:34;;;;;;;9.35;8.52;;;;;;;;;;4974704;28;20139;-75
2023/05/19 09:35:01;;;;;;;9.13;7.78;;;;;;;;;;4976940;28;20446;-75
2023/05/19 09:37:27;;;;;;;8.90;8.10;;;;;;;;;;4974479;28;20028;-75
2023/05/19 09:39:52;;;;;;;9.35;8.55;;;;;;;;;;4972839;28;20027;-76
2023/05/19 09:42:25;;;;;;;9.27;8.32;;;;;;;;;;4973480;28;20051;-77
2023/05/19 09:44:58;;;;;;;9.02;8.13;;;;;;;;;;4977389;28;20080;-76
2023/05/19 09:47:23;;;;;;;10.75;8.68;;;;;;;;;;4975732;28;20026;-78
2023/05/19 09:49:50;;;;;;;9.10;8.20;;;;;;;;;;4972610;28;20046;-77
2023/05/19 09:52:17;;;;;;;9.70;8.70;;;;;;;;;;4976520;28;20032;-76
2023/05/19 09:54:43;;;;;;;9.93;8.65;;;;;;;;;;4975836;28;20153;-75
2023/05/19 09:57:09;;;;;;;11.25;8.27;;;;;;;;;;4975796;28;20115;-75
2023/05/19 09:59:37;;;;;;;9.52;8.60;;;;;;;;;;4974953;28;20028;-76
2023/05/19 10:02:03;;;;;;;11.15;8.50;;;;;;;;;;4975121;28;20434;-76
2023/05/19 10:04:29;;;;;;;9.35;8.50;;;;;;;;;;4973971;28;20033;-76
2023/05/19 10:06:58;;;;;;;10.00;8.98;;;;;;;;;;4975630;28;20434;-75
2023/05/19 10:09:24;;;;;;;9.95;8.68;;;;;;;;;;4972630;28;20029;-75
2023/05/19 10:11:53;;;;;;;11.55;8.45;;;;;;;;;;4971307;28;20504;-77
2023/05/19 10:14:18;;;;;;;;;;;;;;;;;;4973724;28;20122;-77
2023/05/19 10:16:44;;;;;;;9.50;8.20;;;;;;;;;;4975470;28;20000;-76
2023/05/19 10:19:10;;;;;;;10.75;8.98;;;;;;;;;;4976195;28;20113;-76
2023/05/19 10:21:35;;;;;;;10.45;9.35;;;;;;;;;;4970867;28;20154;-75
2023/05/19 10:24:00;;;;;;;9.00;8.30;;;;;;;;;;4975897;28;20019;-77
2023/05/19 10:26:26;;;;;;;11.85;8.95;;;;;;;;;;4975171;28;20128;-76
2023/05/19 10:28:52;;;;;;;10.43;8.48;;;;;;;;;;4972818;28;20026;-76
2023/05/19 10:31:18;;;;;;;13.57;9.20;;;;;;;;;;4973332;28;20041;-76
2023/05/19 10:33:46;;;;;;;9.75;8.52;;;;;;;;;;4973920;28;20019;-76
2023/05/19 10:36:23;;;;;;;13.63;9.43;;;;;;;;;;4973672;28;20131;-76
2023/05/19 10:38:48;;;;;;;9.80;8.90;;;;;;;;;;4973556;28;20444;-75
2023/05/19 10:41:17;;;;;;;9.52;8.35;;;;;;;;;;4973124;28;20026;-74
2023/05/19 10:43:54;;;;;;;10.95;9.88;;;;;;;;;;4973372;28;20421;-77
2023/05/19 10:46:27;;;;;;;12.02;9.85;;;;;;;;;;4973464;28;20117;-76
2023/05/19 10:48:52;;;;;;;12.25;9.05;;;;;;;;;;4975341;28;20050;-76
2023/05/19 10:51:18;;;;;;;10.88;9.35;;;;;;;;;;4975730;28;20346;-76
2023/05/19 10:53:48;;;;;;;10.27;9.27;;;;;;;;;;4974070;28;20018;-76
2023/05/19 10:56:33;;;;;;;11.60;9.45;;;;;;;;;;4972292;28;20393;-75
2023/05/19 10:58:59;;;;;;;10.10;8.88;;;;;;;;;;4974064;28;20057;-78
2023/05/19 11:01:34;;;;;;;11.45;10.27;;;;;;;;;;4973591;28;20405;-77
2023/05/19 11:04:18;;;;;;;13.80;10.32;;;;;;;;;;4969768;28;20394;-76
2023/05/19 11:06:50;;;;;;;10.60;9.45;;;;;;;;;;4974315;28;20425;-77
2023/05/19 11:09:22;;;;;;;11.25;9.18;;;;;;;;;;4972187;28;20113;-77
2023/05/19 11:11:48;;;;;;;10.27;9.27;;;;;;;;;;4972793;28;20038;-76
2023/05/19 11:14:15;;;;;;;12.18;10.25;;;;;;;;;;4970431;28;20152;-76
2023/05/19 11:16:44;;;;;;;10.63;9.60;;;;;;;;;;4973216;28;20027;-76
2023/05/19 11:19:18;;;;;;;10.70;9.70;;;;;;;;;;4971660;28;20110;-76
2023/05/19 11:21:51;;;;;;;13.82;10.13;;;;;;;;;;4973345;28;20084;-75
2023/05/19 11:24:35;;;;;;;12.80;8.80;;;;;;;;;;4973380;28;20070;-77
2023/05/19 11:27:20;;;;;;;11.25;10.05;;;;;;;;;;4969302;28;20058;-76
2023/05/19 11:29:47;;;;;;;12.30;9.40;;;;;;;;;;4972481;28;20037;-76
2023/05/19 11:32:12;;;;;;;11.10;9.88;;;;;;;;;;4971446;28;20072;-76
2023/05/19 11:34:38;;;;;;;11.88;10.63;;;;;;;;;;4975310;28;20437;-75
2023/05/19 11:37:05;;;;;;;10.60;9.55;;;;;;;;;;4974726;28;20119;-76
2023/05/19 11:39:31;;;;;;;14.95;9.50;;;;;;;;;;4973330;28;20023;-76
2023/05/19 11:41:56;;;;;;;11.07;10.07;;;;;;;;;;4968713;28;20061;-77
2023/05/19 11:44:21;;;;;;;16.05;10.00;;;;;;;;;;4970701;28;20083;-76
2023/05/19 11:46:47;;;;;;;10.70;9.77;;;;;;;;;;4975279;28;20357;-76
2023/05/19 11:49:13;;;;;;;10.30;9.20;;;;;;;;;;4976673;28;20113;-76
2023/05/19 11:51:41;;;;;;;11.65;10.00;;;;;;;;;;4976778;28;20027;-76
2023/05/19 11:54:07;;;;;;;10.23;9.23;;;;;;;;;;4977403;28;20038;-75
2023/05/19 11:56:33;;;;;;;12.45;9.90;;;;;;;;;;4977129;28;20087;-75
2023/05/19 11:58:58;;;;;;;11.63;9.65;;;;;;;;;;4977575;28;20041;-80
2023/05/19 12:01:25;;;;;;;10.48;9.45;;;;;;;;;;4976846;28;20101;-76
2023/05/19 12:03:51;;;;;;;11.02;9.93;;;;;;;;;;4978060;28;20557;-77
2023/05/19 12:06:16;;;;;;;12.10;9.98;;;;;;;;;;4975581;28;20107;-77
2023/05/19 12:08:42;;;;;;;12.25;9.27;;;;;;;;;;4973841;28;20038;-77
2023/05/19 12:11:07;;;;;;;12.80;10.32;;;;;;;;;;4976850;28;20041;-76
2023/05/19 12:13:32;;;;;;;11.63;9.55;;;;;;;;;;4976106;28;20018;-77
2023/05/19 12:15:58;;;;;;;12.63;9.55;;;;;;;;;;4976002;28;20038;-77
2023/05/19 12:18:26;;;;;;;11.43;9.60;;;;;;;;;;4976472;28;20022;-76
2023/05/19 12:20:52;;;;;;;10.68;9.60;;;;;;;;;;4973148;28;20054;-76
2023/05/19 12:23:17;;;;;;;11.23;9.40;;;;;;;;;;4972021;28;20123;-75
2023/05/19 12:25:43;;;;;;;10.77;9.55;;;;;;;;;;4973484;28;20468;-76
2023/05/19 12:28:08;;;;;;;16.52;10.07;;;;;;;;;;4974073;28;20030;-77
2023/05/19 12:30:33;;;;;;;9.98;8.95;;;;;;;;;;4974041;28;20027;-77
2023/05/19 12:33:00;;;;;;;11.88;9.30;;;;;;;;;;4977979;28;20033;-79
2023/05/19 12:35:26;;;;;;;11.85;9.30;;;;;;;;;;4969963;28;20037;-76
2023/05/19 12:37:53;;;;;;;12.77;9.77;;;;;;;;;;4974125;28;20193;-77
2023/05/19 12:40:18;;;;;;;9.77;8.77;;;;;;;;;;4974888;28;20022;-75
2023/05/19 12:42:44;;;;;;;9.93;9.00;;;;;;;;;;4976007;28;20051;-74
2023/05/19 12:45:09;;;;;;;11.32;10.07;;;;;;;;;;4962989;28;20031;-76
2023/05/19 12:47:35;;;;;;;10.25;9.25;;;;;;;;;;4964880;28;20461;-76
2023/05/19 12:50:07;;;;;;;10.82;8.98;;;;;;;;;;4973919;28;20026;-76
2023/05/19 12:52:34;;;;;;;10.88;8.35;;;;;;;;;;4971118;28;20026;-74
2023/05/19 12:55:06;;;;;;;11.93;8.23;;;;;;;;;;4972369;28;20369;-75
2023/05/19 12:57:35;;;;;;;9.80;8.25;;;;;;;;;;4973777;28;20030;-76
2023/05/19 13:00:05;;;;;;;13.88;8.80;;;;;;;;;;4972122;28;20065;-74
2023/05/19 13:02:32;;;;;;;8.77;7.95;;;;;;;;;;4972931;28;20030;-75
2023/05/19 13:04:58;;;;;;;12.43;9.60;;;;;;;;;;4975668;28;20117;-77
2023/05/19 13:07:23;;;;;;;10.20;8.70;;;;;;;;;;4974007;28;20114;-73
2023/05/19 13:09:49;;;;;;;9.40;7.80;;;;;;;;;;4973305;28;20407;-74
2023/05/19 13:12:15;;;;;;;10.38;8.27;;;;;;;;;;4971855;28;20388;-76
2023/05/19 13:14:42;;;;;;;8.07;6.95;;;;;;;;;;4972363;28;20034;-75
2023/05/19 13:17:07;;;;;;;8.82;7.93;;;;;;;;;;4971178;28;20492;-77
2023/05/19 13:19:33;;;;;;;16.25;8.35;;;;;;;;;;4971124;28;20054;-74
2023/05/19 13:21:58;;;;;;;6.78;5.90;;;;;;;;;;4971058;28;20034;-76
2023/05/19 13:24:23;;;;;;;9.32;6.65;;;;;;;;;;4972669;28;20034;-74
2023/05/19 13:26:49;;;;;;;8.38;6.70;;;;;;;;;;4970381;28;20022;-75
2023/05/19 13:29:14;;;;;;;8.13;5.57;;;;;;;;;;4958628;28;20688;-74
2023/05/19 13:31:40;;;;;;;7.63;6.15;;;;;;;;;;4968713;28;20022;-73
2023/05/19 13:34:05;;;;;;;9.45;6.43;;;;;;;;;;4973755;28;20118;-74
2023/05/19 13:36:32;;;;;;;8.95;7.45;;;;;;;;;;4974289;28;20026;-75
2023/05/19 13:38:57;;;;;;;8.50;6.70;;;;;;;;;;4973089;28;20080;-74
2023/05/19 13:41:24;;;;;;;7.22;5.85;;;;;;;;;;4970596;28;20015;-74
2023/05/19 13:43:50;;;;;;;8.65;7.40;;;;;;;;;;4973723;28;20027;-70
2023/05/19 13:46:15;;;;;;;14.73;9.95;;;;;;;;;;4972504;28;20041;-73
2023/05/19 13:48:40;;;;;;;9.80;8.80;;;;;;;;;;4972832;28;20076;-72
2023/05/19 13:51:06;;;;;;;9.70;8.70;;;;;;;;;;4972407;28;20042;-71
2023/05/19 13:53:33;;;;;;;11.70;7.95;;;;;;;;;;4972787;28;20422;-73
2023/05/19 13:55:59;;;;;;;12.55;8.82;;;;;;;;;;4972582;28;20275;-73
2023/05/19 13:58:24;;;;;;;6.95;6.35;;;;;;;;;;4973286;28;20111;-74
2023/05/19 14:00:53;;;;;;;9.20;6.43;;;;;;;;;;4973621;28;20058;-73
2023/05/19 14:03:18;;;;;;;7.28;6.57;;;;;;;;;;4971341;28;20037;-74
2023/05/19 14:05:44;;;;;;;6.70;6.00;;;;;;;;;;4972251;28;20042;-74
2023/05/19 14:08:10;;;;;;;6.47;5.72;;;;;;;;;;4973949;28;20057;-73
2023/05/19 14:10:35;;;;;;;8.45;5.90;;;;;;;;;;4970399;28;20796;-74
2023/05/19 14:13:00;;;;;;;6.72;6.13;;;;;;;;;;4973931;28;20018;-72
2023/05/19 14:15:26;;;;;;;7.07;5.93;;;;;;;;;;4971662;28;20085;-73
2023/05/19 14:17:52;;;;;;;9.80;6.22;;;;;;;;;;4970012;28;20030;-71
2023/05/19 14:20:17;;;;;;;7.65;5.47;;;;;;;;;;4973141;28;20031;-75